createdAt,value
2023-05-12T00:00:58.259Z,95800.78
2023-05-12T00:02:03.387Z,95794.78
2023-05-12T00:03:06.002Z,95799.00
2023-05-12T00:04:11.103Z,95796.59
2023-05-12T00:05:15.911Z,95802.63
2023-05-12T00:06:20.534Z,95794.19
2023-05-12T00:07:22.790Z,95795.78
2023-05-12T00:08:27.403Z,95799.44
2023-05-12T00:09:29.598Z,95790.75
2023-05-12T00:10:35.704Z,95789.81
2023-05-12T00:11:38.332Z,95784.66
2023-05-12T00:12:43.229Z,95786.50
2023-05-12T00:13:45.404Z,95790.91
2023-05-12T00:14:50.195Z,95784.91
2023-05-12T00:15:52.408Z,95786.66
2023-05-12T00:16:57.210Z,95791.69
2023-05-12T00:17:59.279Z,95790.91
2023-05-12T00:19:04.141Z,95786.66
2023-05-12T00:20:07.544Z,95787.56
2023-05-12T00:21:15.228Z,95788.66
2023-05-12T00:22:17.392Z,95784.38
2023-05-12T00:23:22.329Z,95794.00
2023-05-12T00:24:24.374Z,95787.28
2023-05-12T00:25:29.133Z,95786.53
2023-05-12T00:26:31.211Z,95796.75
2023-05-12T00:27:35.878Z,95782.88
2023-05-12T00:28:37.898Z,95784.53
2023-05-12T00:29:42.515Z,95789.81
2023-05-12T00:30:44.645Z,95791.56
2023-05-12T00:31:49.312Z,95796.75
2023-05-12T00:32:51.501Z,95798.41
2023-05-12T00:33:56.129Z,95788.06
2023-05-12T00:34:58.271Z,95789.72
2023-05-12T00:36:04.260Z,95789.66
2023-05-12T00:37:09.110Z,95796.59
2023-05-12T00:38:13.759Z,95793.06
2023-05-12T00:39:15.815Z,95787.81
2023-05-12T00:40:21.098Z,95789.41
2023-05-12T00:41:23.332Z,95781.50
2023-05-12T00:42:27.935Z,95787.41
2023-05-12T00:43:29.996Z,95790.75
2023-05-12T00:44:34.635Z,95783.75
2023-05-12T00:45:37.244Z,95785.50
2023-05-12T00:46:41.973Z,95786.41
2023-05-12T00:47:46.445Z,95782.06
2023-05-12T00:48:51.982Z,95783.00
2023-05-12T00:49:54.103Z,95785.56
2023-05-12T00:51:00.896Z,95782.22
2023-05-12T00:52:03.742Z,95779.63
2023-05-12T00:53:11.377Z,95777.97
2023-05-12T00:54:13.670Z,95774.38
2023-05-12T00:55:18.494Z,95778.75
2023-05-12T00:56:20.659Z,95772.03
2023-05-12T00:57:25.954Z,95777.16
2023-05-12T00:58:28.005Z,95779.81
2023-05-12T00:59:32.632Z,95771.31
2023-05-12T01:00:34.728Z,95778.13
2023-05-12T01:01:39.542Z,95779.06
2023-05-12T01:02:42.097Z,95779.97
2023-05-12T01:03:47.205Z,95781.50
2023-05-12T01:04:50.037Z,95777.22
2023-05-12T01:06:03.102Z,95779.63
2023-05-12T01:07:10.117Z,95778.91
2023-05-12T01:08:19.540Z,95777.03
2023-05-12T01:09:22.190Z,95776.16
2023-05-12T01:10:26.850Z,95775.38
2023-05-12T01:11:28.877Z,95779.72
2023-05-12T01:12:33.812Z,95773.72
2023-05-12T01:13:36.320Z,95784.97
2023-05-12T01:14:41.527Z,95772.97
2023-05-12T01:15:48.118Z,95778.97
2023-05-12T01:16:55.771Z,95775.56
2023-05-12T01:18:02.458Z,95780.72
2023-05-12T01:19:10.666Z,95779.91
2023-05-12T01:20:15.495Z,95780.72
2023-05-12T01:21:21.330Z,95771.31
2023-05-12T01:22:24.328Z,95774.63
2023-05-12T01:23:38.936Z,95776.47
2023-05-12T01:24:46.877Z,95778.19
2023-05-12T01:25:53.093Z,95776.38
2023-05-12T01:26:58.554Z,95773.88
2023-05-12T01:28:04.179Z,95780.88
2023-05-12T01:29:07.857Z,95776.53
2023-05-12T01:30:15.302Z,95777.38
2023-05-12T01:31:20.254Z,95775.72
2023-05-12T01:32:26.573Z,95774.03
2023-05-12T01:33:29.219Z,95772.19
2023-05-12T01:34:35.271Z,95782.56
2023-05-12T01:35:37.311Z,95773.03
2023-05-12T01:36:41.923Z,95776.53
2023-05-12T01:37:44.004Z,95768.72
2023-05-12T01:38:48.673Z,95770.38
2023-05-12T01:39:50.813Z,95771.19
2023-05-12T01:40:55.522Z,95769.44
2023-05-12T01:42:00.281Z,95772.19
2023-05-12T01:43:04.928Z,95763.59
2023-05-12T01:44:07.047Z,95768.13
2023-05-12T01:45:12.993Z,95766.41
2023-05-12T01:46:15.185Z,95762.34
2023-05-12T01:47:21.164Z,95773.69
2023-05-12T01:48:23.247Z,95765.91
2023-05-12T01:49:27.950Z,95769.50
2023-05-12T01:50:30.042Z,95766.84
2023-05-12T01:51:34.679Z,95774.84
2023-05-12T01:52:37.033Z,95778.34
2023-05-12T01:53:41.775Z,95770.72
2023-05-12T01:54:43.818Z,95769.16
2023-05-12T01:55:48.488Z,95776.91
2023-05-12T01:56:50.674Z,95776.06
2023-05-12T01:57:57.928Z,95776.16
2023-05-12T01:58:59.950Z,95771.97
2023-05-12T02:00:04.626Z,95771.97
2023-05-12T02:01:06.679Z,95772.72
2023-05-12T02:02:12.521Z,95773.72
2023-05-12T02:03:14.851Z,95777.13
2023-05-12T02:04:19.516Z,95771.97
2023-05-12T02:05:22.422Z,95777.13
2023-05-12T02:06:27.267Z,95773.78
2023-05-12T02:07:29.342Z,95775.31
2023-05-12T02:08:33.993Z,95776.97
2023-05-12T02:09:36.010Z,95776.06
2023-05-12T02:10:40.683Z,95773.72
2023-05-12T02:11:42.757Z,95777.13
2023-05-12T02:12:47.424Z,95773.78
2023-05-12T02:13:52.460Z,95777.13
2023-05-12T02:14:57.124Z,95774.72
2023-05-12T02:15:59.197Z,95778.97
2023-05-12T02:17:04.779Z,95772.88
2023-05-12T02:18:08.075Z,95774.44
2023-05-12T02:19:12.778Z,95770.97
2023-05-12T02:20:15.019Z,95777.91
2023-05-12T02:21:19.655Z,95779.63
2023-05-12T02:22:21.677Z,95774.31
2023-05-12T02:23:26.366Z,95777.81
2023-05-12T02:24:28.477Z,95780.41
2023-05-12T02:25:33.087Z,95778.63
2023-05-12T02:26:35.135Z,95776.06
2023-05-12T02:27:39.786Z,95780.16
2023-05-12T02:28:41.824Z,95773.31
2023-05-12T02:29:49.338Z,95771.41
2023-05-12T02:30:53.264Z,95779.09
2023-05-12T02:31:57.945Z,95776.44
2023-05-12T02:33:00.130Z,95777.25
2023-05-12T02:34:06.568Z,95768.00
2023-05-12T02:35:10.316Z,95777.59
2023-05-12T02:36:14.958Z,95771.63
2023-05-12T02:37:16.990Z,95778.63
2023-05-12T02:38:21.701Z,95780.34
2023-05-12T02:39:23.879Z,95780.34
2023-05-12T02:40:28.511Z,95771.63
2023-05-12T02:41:30.531Z,95779.41
2023-05-12T02:42:36.378Z,95778.63
2023-05-12T02:43:38.432Z,95776.91
2023-05-12T02:44:43.059Z,95772.72
2023-05-12T02:45:47.940Z,95773.47
2023-05-12T02:46:52.615Z,95771.75
2023-05-12T02:47:54.732Z,95766.56
2023-05-12T02:48:59.374Z,95772.56
2023-05-12T02:50:01.428Z,95769.06
2023-05-12T02:51:06.235Z,95774.56
2023-05-12T02:52:08.651Z,95771.88
2023-05-12T02:53:13.327Z,95776.22
2023-05-12T02:54:15.503Z,95765.78
2023-05-12T02:55:20.476Z,95769.22
2023-05-12T02:56:22.769Z,95771.03
2023-05-12T02:57:33.088Z,95766.69
2023-05-12T02:58:35.465Z,95771.81
2023-05-12T02:59:40.050Z,95777.81
2023-05-12T03:00:42.096Z,95769.16
2023-05-12T03:01:49.361Z,95767.41
2023-05-12T03:02:51.825Z,95768.28
2023-05-12T03:03:56.559Z,95766.63
2023-05-12T03:04:58.650Z,95766.63
2023-05-12T03:06:04.770Z,95771.81
2023-05-12T03:07:07.341Z,95766.63
2023-05-12T03:08:12.064Z,95764.97
2023-05-12T03:09:14.174Z,95762.38
2023-05-12T03:10:19.562Z,95765.78
2023-05-12T03:11:22.403Z,95770.03
2023-05-12T03:12:28.953Z,95765.69
2023-05-12T03:13:31.040Z,95767.41
2023-05-12T03:14:35.696Z,95771.81
2023-05-12T03:15:37.716Z,95769.06
2023-05-12T03:16:42.427Z,95772.31
2023-05-12T03:17:47.134Z,95774.22
2023-05-12T03:18:51.817Z,95775.16
2023-05-12T03:19:53.947Z,95771.75
2023-05-12T03:20:58.664Z,95772.56
2023-05-12T03:22:00.893Z,95774.31
2023-05-12T03:23:06.160Z,95767.28
2023-05-12T03:24:09.036Z,95772.47
2023-05-12T03:25:13.724Z,95767.41
2023-05-12T03:26:15.775Z,95773.31
2023-05-12T03:27:20.464Z,95775.16
2023-05-12T03:28:24.884Z,95769.00
2023-05-12T03:29:29.593Z,95780.22
2023-05-12T03:30:33.231Z,95770.72
2023-05-12T03:31:37.972Z,95769.81
2023-05-12T03:32:40.160Z,95770.41
2023-05-12T03:33:47.466Z,95773.91
2023-05-12T03:34:49.528Z,95766.16
2023-05-12T03:35:54.241Z,95771.25
2023-05-12T03:36:58.852Z,95767.84
2023-05-12T03:38:03.466Z,95766.97
2023-05-12T03:39:05.575Z,95766.16
2023-05-12T03:40:11.812Z,95770.50
2023-05-12T03:41:13.875Z,95770.50
2023-05-12T03:42:19.428Z,95768.81
2023-05-12T03:43:21.459Z,95770.50
2023-05-12T03:44:26.182Z,95771.47
2023-05-12T03:45:28.319Z,95770.66
2023-05-12T03:46:33.037Z,95772.41
2023-05-12T03:47:36.156Z,95767.13
2023-05-12T03:48:40.927Z,95760.22
2023-05-12T03:49:45.552Z,95761.06
2023-05-12T03:50:50.185Z,95766.31
2023-05-12T03:51:52.285Z,95768.81
2023-05-12T03:52:57.037Z,95768.91
2023-05-12T03:53:59.079Z,95766.31
2023-05-12T03:55:03.778Z,95769.81
2023-05-12T03:56:06.830Z,95765.47
2023-05-12T03:57:11.481Z,95766.31
2023-05-12T03:58:13.518Z,95762.81
2023-05-12T03:59:18.093Z,95760.22
2023-05-12T04:00:23.534Z,95759.22
2023-05-12T04:01:25.714Z,95753.13
2023-05-12T04:02:30.365Z,95758.31
2023-05-12T04:03:32.709Z,95758.22
2023-05-12T04:04:37.425Z,95755.56
2023-05-12T04:05:42.949Z,95760.56
2023-05-12T04:06:47.662Z,95758.81
2023-05-12T04:07:49.786Z,95761.41
2023-05-12T04:08:54.381Z,95755.34
2023-05-12T04:09:56.520Z,95756.94
2023-05-12T04:11:02.556Z,95757.00
2023-05-12T04:12:05.416Z,95755.16
2023-05-12T04:13:10.307Z,95752.47
2023-05-12T04:14:12.349Z,95750.81
2023-05-12T04:15:17.441Z,95756.00
2023-05-12T04:16:19.544Z,95758.50
2023-05-12T04:17:24.239Z,95754.06
2023-05-12T04:18:27.634Z,95755.66
2023-05-12T04:19:32.275Z,95757.44
2023-05-12T04:20:34.367Z,95761.69
2023-05-12T04:21:41.572Z,95757.34
2023-05-12T04:22:44.392Z,95754.75
2023-05-12T04:23:49.088Z,95754.69
2023-05-12T04:24:51.320Z,95754.69
2023-05-12T04:25:56.650Z,95766.69
2023-05-12T04:26:58.804Z,95759.69
2023-05-12T04:28:03.478Z,95763.03
2023-05-12T04:29:05.551Z,95759.34
2023-05-12T04:30:11.679Z,95763.63
2023-05-12T04:31:13.712Z,95767.00
2023-05-12T04:32:18.535Z,95767.00
2023-05-12T04:33:20.604Z,95764.22
2023-05-12T04:34:25.284Z,95767.75
2023-05-12T04:35:27.659Z,95772.75
2023-05-12T04:36:32.320Z,95774.59
2023-05-12T04:37:36.936Z,95770.94
2023-05-12T04:38:41.877Z,95770.78
2023-05-12T04:39:43.936Z,95772.44
2023-05-12T04:40:48.673Z,95773.19
2023-05-12T04:41:50.737Z,95773.03
2023-05-12T04:42:55.386Z,95770.28
2023-05-12T04:44:00.694Z,95778.81
2023-05-12T04:45:05.861Z,95776.97
2023-05-12T04:46:07.895Z,95780.28
2023-05-12T04:47:12.547Z,95774.13
2023-05-12T04:48:14.596Z,95781.72
2023-05-12T04:49:19.212Z,95781.56
2023-05-12T04:50:21.456Z,95777.06
2023-05-12T04:51:26.188Z,95778.88
2023-05-12T04:52:28.355Z,95781.41
2023-05-12T04:53:36.468Z,95786.41
2023-05-12T04:54:39.201Z,95784.66
2023-05-12T04:55:46.022Z,95794.03
2023-05-12T04:56:48.112Z,95789.59
2023-05-12T04:57:52.802Z,95787.66
2023-05-12T04:58:54.879Z,95779.78
2023-05-12T04:59:59.644Z,95783.97
2023-05-12T05:01:01.809Z,95783.97
2023-05-12T05:02:06.923Z,95787.31
2023-05-12T05:03:09.286Z,95781.97
2023-05-12T05:04:14.009Z,95778.31
2023-05-12T05:05:16.371Z,95783.31
2023-05-12T05:06:21.053Z,95782.38
2023-05-12T05:07:23.082Z,95784.63
2023-05-12T05:08:27.710Z,95787.31
2023-05-12T05:09:33.403Z,95784.56
2023-05-12T05:10:39.684Z,95782.78
2023-05-12T05:11:41.798Z,95779.94
2023-05-12T05:12:46.423Z,95785.78
2023-05-12T05:13:48.436Z,95790.72
2023-05-12T05:14:53.135Z,95780.19
2023-05-12T05:15:56.842Z,95785.09
2023-05-12T05:17:01.626Z,95781.59
2023-05-12T05:18:03.812Z,95777.88
2023-05-12T05:19:19.547Z,95777.81
2023-05-12T05:20:28.591Z,95787.06
2023-05-12T05:21:34.770Z,95784.22
2023-05-12T05:22:36.908Z,95787.59
2023-05-12T05:23:41.936Z,95786.66
2023-05-12T05:24:46.543Z,95782.94
2023-05-12T05:25:51.484Z,95790.41
2023-05-12T05:26:53.566Z,95792.88
2023-05-12T05:27:58.815Z,95794.47
2023-05-12T05:29:03.715Z,95783.91
2023-05-12T05:30:08.052Z,95784.56
2023-05-12T05:31:18.364Z,95789.66
2023-05-12T05:32:20.522Z,95792.09
2023-05-12T05:33:25.199Z,95790.97
2023-05-12T05:34:27.220Z,95789.97
2023-05-12T05:35:33.442Z,95797.47
2023-05-12T05:36:35.708Z,95785.06
2023-05-12T05:37:40.421Z,95790.09
2023-05-12T05:38:42.779Z,95794.25
2023-05-12T05:39:50.030Z,95792.22
2023-05-12T05:40:53.623Z,95786.94
2023-05-12T05:41:59.150Z,95784.72
2023-05-12T05:43:01.230Z,95794.00
2023-05-12T05:44:05.960Z,95785.28
2023-05-12T05:45:09.626Z,95793.63
2023-05-12T05:46:14.290Z,95785.56
2023-05-12T05:47:16.362Z,95791.44
2023-05-12T05:48:21.169Z,95786.88
2023-05-12T05:49:23.364Z,95797.91
2023-05-12T05:50:28.054Z,95787.34
2023-05-12T05:51:30.158Z,95783.63
2023-05-12T05:52:34.761Z,95786.88
2023-05-12T05:53:39.418Z,95784.19
2023-05-12T05:54:41.529Z,95781.41
2023-05-12T05:55:49.269Z,95783.81
2023-05-12T05:56:53.923Z,95792.16
2023-05-12T05:57:55.921Z,95780.44
2023-05-12T05:59:02.724Z,95785.19
2023-05-12T06:00:06.202Z,95784.34
2023-05-12T06:01:10.882Z,95780.13
2023-05-12T06:02:13.046Z,95782.25
2023-05-12T06:03:17.757Z,95776.47
2023-05-12T06:04:19.882Z,95787.03
2023-05-12T06:05:24.937Z,95783.81
2023-05-12T06:06:27.012Z,95782.38
2023-05-12T06:07:31.604Z,95787.94
2023-05-12T06:08:36.228Z,95781.94
2023-05-12T06:09:38.253Z,95783.72
2023-05-12T06:10:42.952Z,95780.50
2023-05-12T06:11:47.621Z,95781.72
2023-05-12T06:12:53.193Z,95779.41
2023-05-12T06:13:55.208Z,95782.34
2023-05-12T06:14:59.840Z,95781.31
2023-05-12T06:16:01.908Z,95778.94
2023-05-12T06:17:06.619Z,95777.56
2023-05-12T06:18:08.920Z,95779.03
2023-05-12T06:19:13.604Z,95777.03
2023-05-12T06:20:15.844Z,95780.47
2023-05-12T06:21:20.465Z,95777.34
2023-05-12T06:22:25.241Z,95782.38
2023-05-12T06:23:27.502Z,95780.47
2023-05-12T06:24:32.113Z,95783.00
2023-05-12T06:25:36.806Z,95778.81
2023-05-12T06:26:38.905Z,95781.41
2023-05-12T06:27:46.189Z,95777.66
2023-05-12T06:28:48.641Z,95783.38
2023-05-12T06:29:54.537Z,95784.13
2023-05-12T06:30:56.587Z,95780.47
2023-05-12T06:32:01.248Z,95775.78
2023-05-12T06:33:03.445Z,95783.25
2023-05-12T06:34:08.064Z,95782.13
2023-05-12T06:35:10.390Z,95777.44
2023-05-12T06:36:15.056Z,95781.47
2023-05-12T06:37:17.072Z,95780.75
2023-05-12T06:38:21.718Z,95780.53
2023-05-12T06:39:23.726Z,95784.09
2023-05-12T06:40:28.335Z,95778.78
2023-05-12T06:41:30.601Z,95781.38
2023-05-12T06:42:35.235Z,95776.41
2023-05-12T06:43:39.968Z,95779.63
2023-05-12T06:44:45.814Z,95786.50
2023-05-12T06:45:50.567Z,95787.34
2023-05-12T06:46:52.668Z,95789.81
2023-05-12T06:47:57.964Z,95785.25
2023-05-12T06:49:03.230Z,95790.03
2023-05-12T06:50:06.826Z,95785.66
2023-05-12T06:51:11.472Z,95780.81
2023-05-12T06:52:16.556Z,95780.94
2023-05-12T06:53:22.823Z,95783.94
2023-05-12T06:54:28.669Z,95788.72
2023-05-12T06:55:33.325Z,95785.47
2023-05-12T06:56:35.520Z,95786.19
2023-05-12T06:57:40.290Z,95788.69
2023-05-12T06:58:44.952Z,95789.31
2023-05-12T06:59:49.595Z,95788.38
2023-05-12T07:00:51.692Z,95787.22
2023-05-12T07:01:56.458Z,95784.69
2023-05-12T07:03:01.237Z,95788.88
2023-05-12T07:04:03.420Z,95787.22
2023-05-12T07:05:08.926Z,95793.47
2023-05-12T07:06:11.296Z,95790.34
2023-05-12T07:07:15.925Z,95787.88
2023-05-12T07:08:18.009Z,95790.78
2023-05-12T07:09:22.677Z,95787.06
2023-05-12T07:10:24.707Z,95789.16
2023-05-12T07:11:29.493Z,95789.47
2023-05-12T07:12:32.665Z,95792.41
2023-05-12T07:13:38.278Z,95790.25
2023-05-12T07:14:42.898Z,95786.09
2023-05-12T07:15:47.580Z,95791.91
2023-05-12T07:16:49.778Z,95797.41
2023-05-12T07:17:55.911Z,95794.81
2023-05-12T07:18:58.104Z,95792.50
2023-05-12T07:20:03.181Z,95792.28
2023-05-12T07:21:08.251Z,95787.81
2023-05-12T07:22:15.660Z,95790.69
2023-05-12T07:23:20.435Z,95785.97
2023-05-12T07:24:22.509Z,95788.75
2023-05-12T07:25:28.458Z,95796.69
2023-05-12T07:26:33.165Z,95781.53
2023-05-12T07:27:35.305Z,95779.34
2023-05-12T07:28:40.426Z,95777.38
2023-05-12T07:29:45.080Z,95785.34
2023-05-12T07:30:49.754Z,95781.47
2023-05-12T07:31:51.924Z,95777.47
2023-05-12T07:32:58.032Z,95782.13
2023-05-12T07:34:02.715Z,95781.31
2023-05-12T07:35:05.717Z,95783.16
2023-05-12T07:36:11.228Z,95772.03
2023-05-12T07:37:13.269Z,95770.44
2023-05-12T07:38:17.944Z,95775.97
2023-05-12T07:39:23.956Z,95775.38
2023-05-12T07:40:28.730Z,95766.03
2023-05-12T07:41:32.566Z,95764.53
2023-05-12T07:42:38.533Z,95743.44
2023-05-12T07:43:40.604Z,95729.09
2023-05-12T07:44:48.024Z,95721.19
2023-05-12T07:45:52.706Z,95733.91
2023-05-12T07:46:54.842Z,95734.28
2023-05-12T07:47:59.548Z,95731.88
2023-05-12T07:49:04.259Z,95742.09
2023-05-12T07:50:07.373Z,95729.47
2023-05-12T07:51:12.220Z,95728.50
2023-05-12T07:52:16.844Z,95726.84
2023-05-12T07:53:18.896Z,95731.38
2023-05-12T07:54:23.529Z,95743.75
2023-05-12T07:55:28.413Z,95736.97
2023-05-12T07:56:30.483Z,95748.78
2023-05-12T07:57:35.094Z,95750.47
2023-05-12T07:58:37.169Z,95756.44
2023-05-12T07:59:42.290Z,95761.38
2023-05-12T08:00:49.475Z,95759.56
2023-05-12T08:01:51.594Z,95753.38
2023-05-12T08:02:56.618Z,95749.22
2023-05-12T08:03:59.010Z,95743.91
2023-05-12T08:05:03.744Z,95748.38
2023-05-12T08:06:07.446Z,95754.31
2023-05-12T08:07:12.107Z,95758.75
2023-05-12T08:08:16.902Z,95753.72
2023-05-12T08:09:21.481Z,95745.78
2023-05-12T08:10:29.806Z,95748.81
2023-05-12T08:11:31.854Z,95743.69
2023-05-12T08:12:36.888Z,95750.25
2023-05-12T08:13:41.753Z,95725.97
2023-05-12T08:14:43.745Z,95729.53
2023-05-12T08:15:52.318Z,95722.19
2023-05-12T08:16:54.425Z,95730.22
2023-05-12T08:17:59.302Z,95730.28
2023-05-12T08:19:01.442Z,95739.53
2023-05-12T08:20:07.101Z,95725.22
2023-05-12T08:21:09.462Z,95734.94
2023-05-12T08:22:14.081Z,95742.22
2023-05-12T08:23:19.439Z,95727.03
2023-05-12T08:24:24.337Z,95724.44
2023-05-12T08:25:28.023Z,95729.84
2023-05-12T08:26:32.645Z,95732.34
2023-05-12T08:27:37.294Z,95712.47
2023-05-12T08:28:41.959Z,95693.09
2023-05-12T08:29:44.017Z,95709.41
2023-05-12T08:30:51.317Z,95712.72
2023-05-12T08:31:53.589Z,95734.84
2023-05-12T08:32:58.932Z,95724.34
2023-05-12T08:34:10.378Z,95726.13
2023-05-12T08:35:15.873Z,95721.16
2023-05-12T08:36:20.529Z,95714.13
2023-05-12T08:37:22.695Z,95724.59
2023-05-12T08:38:27.420Z,95720.28
2023-05-12T08:39:31.179Z,95693.63
2023-05-12T08:40:49.950Z,95702.50
2023-05-12T08:42:02.491Z,95692.78
2023-05-12T08:43:10.407Z,95684.53
2023-05-12T08:44:16.023Z,95689.66
2023-05-12T08:45:18.863Z,95674.78
2023-05-12T08:46:27.027Z,95678.44
2023-05-12T08:47:29.411Z,95660.00
2023-05-12T08:48:37.544Z,95674.75
2023-05-12T08:49:40.626Z,95670.19
2023-05-12T08:50:46.541Z,95688.28
2023-05-12T08:51:57.678Z,95702.47
2023-05-12T08:53:03.262Z,95705.66
2023-05-12T08:54:07.991Z,95714.94
2023-05-12T08:55:13.631Z,95730.56
2023-05-12T08:57:29.608Z,95749.81
2023-05-12T08:58:41.084Z,95756.78
2023-05-12T08:59:47.201Z,95766.66
2023-05-12T09:00:50.984Z,95759.41
2023-05-12T09:01:59.249Z,95774.31
2023-05-12T09:03:02.590Z,95770.22
2023-05-12T09:04:07.875Z,95778.69
2023-05-12T09:05:10.481Z,95773.47
2023-05-12T09:06:16.146Z,95782.16
2023-05-12T09:07:19.221Z,95788.16
2023-05-12T09:08:24.392Z,95785.75
2023-05-12T09:09:29.800Z,95794.66
2023-05-12T09:10:35.787Z,95785.09
2023-05-12T09:11:40.717Z,95786.75
2023-05-12T09:12:46.415Z,95790.34
2023-05-12T09:13:54.347Z,95788.25
2023-05-12T09:15:08.022Z,95779.34
2023-05-12T09:16:13.069Z,95777.19
2023-05-12T09:17:20.346Z,95770.78
2023-05-12T09:18:22.486Z,95766.06
2023-05-12T09:19:27.174Z,95777.03
2023-05-12T09:20:31.766Z,95768.44
2023-05-12T09:21:37.537Z,95766.81
2023-05-12T09:22:42.252Z,95766.59
2023-05-12T09:23:53.261Z,95766.41
2023-05-12T09:24:57.883Z,95768.78
2023-05-12T09:26:01.426Z,95757.44
2023-05-12T09:27:07.243Z,95760.50
2023-05-12T09:28:09.732Z,95763.66
2023-05-12T09:29:21.217Z,95755.16
2023-05-12T09:30:38.344Z,95762.31
2023-05-12T09:31:50.059Z,95766.41
2023-05-12T09:33:07.743Z,95771.97
2023-05-12T09:34:10.851Z,95756.25
2023-05-12T09:35:15.629Z,95762.03
2023-05-12T09:36:18.751Z,95758.13
2023-05-12T09:37:23.398Z,95761.88
2023-05-12T09:38:25.394Z,95767.91
2023-05-12T09:39:30.447Z,95771.34
2023-05-12T09:40:32.510Z,95808.69
2023-05-12T09:41:38.997Z,95796.84
2023-05-12T09:42:45.431Z,95803.91
2023-05-12T09:43:47.548Z,95797.94
2023-05-12T09:44:53.085Z,95809.22
2023-05-12T09:45:55.821Z,95813.75
2023-05-12T09:47:10.454Z,95812.09
2023-05-12T09:48:15.466Z,95807.75
2023-05-12T09:49:25.198Z,95815.44
2023-05-12T09:50:30.583Z,95814.75
2023-05-12T09:51:39.589Z,95815.13
2023-05-12T09:52:41.641Z,95817.50
2023-05-12T09:53:47.284Z,95827.09
2023-05-12T09:54:49.294Z,95817.25
2023-05-12T09:55:54.068Z,95809.84
2023-05-12T09:56:59.202Z,95805.22
2023-05-12T09:58:05.253Z,95807.59
2023-05-12T09:59:13.382Z,95814.25
2023-05-12T10:00:34.537Z,95819.75
2023-05-12T10:01:43.318Z,95810.22
2023-05-12T10:02:49.406Z,95814.84
2023-05-12T10:03:58.629Z,95797.63
2023-05-12T10:05:03.473Z,95808.13
2023-05-12T10:06:10.909Z,95815.84
2023-05-12T10:07:17.566Z,95813.00
2023-05-12T10:08:26.643Z,95814.66
2023-05-12T10:09:34.200Z,95813.22
2023-05-12T10:10:39.748Z,95821.19
2023-05-12T10:11:42.719Z,95810.75
2023-05-12T10:12:49.149Z,95809.06
2023-05-12T10:13:52.437Z,95823.34
2023-05-12T10:14:58.126Z,95816.28
2023-05-12T10:16:00.815Z,95815.19
2023-05-12T10:17:05.861Z,95820.72
2023-05-12T10:18:08.729Z,95806.34
2023-05-12T10:19:16.813Z,95808.81
2023-05-12T10:20:19.230Z,95809.53
2023-05-12T10:21:24.838Z,95805.88
2023-05-12T10:22:28.334Z,95814.41
2023-05-12T10:23:35.468Z,95799.44
2023-05-12T10:24:40.984Z,95790.09
2023-05-12T10:25:46.275Z,95787.53
2023-05-12T10:26:48.388Z,95786.88
2023-05-12T10:27:54.360Z,95774.97
2023-05-12T10:28:59.733Z,95777.97
2023-05-12T10:30:02.873Z,95786.72
2023-05-12T10:31:09.993Z,95779.97
2023-05-12T10:32:12.163Z,95780.19
2023-05-12T10:33:16.885Z,95783.13
2023-05-12T10:34:21.847Z,95780.28
2023-05-12T10:35:35.577Z,95781.88
2023-05-12T10:36:49.836Z,95763.72
2023-05-12T10:37:51.940Z,95753.66
2023-05-12T10:38:56.879Z,95761.81
2023-05-12T10:40:01.260Z,95750.91
2023-05-12T10:41:09.300Z,95778.56
2023-05-12T10:42:11.710Z,95759.91
2023-05-12T10:43:24.899Z,95760.47
2023-05-12T10:44:30.582Z,95761.50
2023-05-12T10:45:36.927Z,95724.53
2023-05-12T10:46:41.919Z,95739.75
2023-05-12T10:47:45.196Z,95735.03
2023-05-12T10:48:55.982Z,95735.44
2023-05-12T10:50:00.665Z,95717.94
2023-05-12T10:51:10.524Z,95728.38
2023-05-12T10:52:16.272Z,95725.09
2023-05-12T10:53:38.007Z,95738.06
2023-05-12T10:54:50.372Z,95733.09
2023-05-12T10:55:57.275Z,95738.91
2023-05-12T10:57:03.547Z,95738.13
2023-05-12T10:58:07.780Z,95729.59
2023-05-12T11:01:10.130Z,95776.06
2023-05-12T11:02:19.798Z,95804.19
2023-05-12T11:03:25.810Z,95810.25
2023-05-12T11:04:44.708Z,95800.78
2023-05-12T11:05:59.454Z,95818.28
2023-05-12T11:07:08.205Z,95818.16
2023-05-12T11:08:11.587Z,95809.41
2023-05-12T11:09:17.858Z,95814.59
2023-05-12T11:10:23.713Z,95810.13
2023-05-12T11:11:27.106Z,95805.50
2023-05-12T11:12:35.593Z,95807.41
2023-05-12T11:13:40.856Z,95810.25
2023-05-12T11:14:44.291Z,95809.34
2023-05-12T11:15:50.473Z,95789.63
2023-05-12T11:16:53.797Z,95781.22
2023-05-12T11:17:58.480Z,95801.69
2023-05-12T11:19:04.679Z,95791.72
2023-05-12T11:20:12.182Z,95788.03
2023-05-12T11:21:17.227Z,95803.31
2023-05-12T11:22:23.069Z,95802.53
2023-05-12T11:23:29.218Z,95759.50
2023-05-12T11:24:31.287Z,95776.53
2023-05-12T11:25:36.023Z,95769.63
2023-05-12T11:26:40.979Z,95764.97
2023-05-12T11:27:50.885Z,95757.94
2023-05-12T11:28:52.986Z,95752.28
2023-05-12T11:30:02.046Z,95754.47
2023-05-12T11:33:06.092Z,95765.16
2023-05-12T11:34:13.192Z,95763.03
2023-05-12T11:35:20.451Z,95760.97
2023-05-12T11:36:25.182Z,95756.28
2023-05-12T11:37:31.254Z,95750.69
2023-05-12T11:38:34.417Z,95778.47
2023-05-12T11:39:41.029Z,95755.59
2023-05-12T11:40:45.311Z,95764.19
2023-05-12T11:41:59.278Z,95761.16
2023-05-12T11:43:16.266Z,95768.03
2023-05-12T11:44:23.660Z,95793.97
2023-05-12T11:45:28.880Z,95788.81
2023-05-12T11:46:34.996Z,95802.09
2023-05-12T11:47:38.001Z,95794.31
2023-05-12T11:48:45.917Z,95798.38
2023-05-12T11:49:56.410Z,95805.94
2023-05-12T11:51:49.543Z,95824.41
2023-05-12T11:53:16.955Z,95823.31
2023-05-12T11:54:34.655Z,95835.81
2023-05-12T11:55:43.613Z,95842.22
2023-05-12T11:56:58.242Z,95839.94
2023-05-12T11:58:10.118Z,95843.66
2023-05-12T11:59:34.369Z,95842.84
2023-05-12T12:00:45.529Z,95853.31
2023-05-12T12:01:50.932Z,95849.63
2023-05-12T12:02:53.673Z,95850.72
2023-05-12T12:04:19.649Z,95852.69
2023-05-12T12:05:45.142Z,95856.38
2023-05-12T12:06:52.242Z,95861.44
2023-05-12T12:08:09.747Z,95863.00
2023-05-12T12:09:21.081Z,95860.28
2023-05-12T12:10:25.476Z,95866.22
2023-05-12T12:11:40.545Z,95865.38
2023-05-12T12:12:52.707Z,95869.66
2023-05-12T12:14:08.201Z,95863.81
2023-05-12T12:15:16.097Z,95862.50
2023-05-12T12:16:26.042Z,95869.06
2023-05-12T12:17:47.906Z,95867.50
2023-05-12T12:19:21.188Z,95866.81
2023-05-12T12:20:48.265Z,95866.94
2023-05-12T12:21:59.986Z,95867.53
2023-05-12T12:23:07.786Z,95854.56
2023-05-12T12:24:23.903Z,95862.81
2023-05-12T12:25:38.198Z,95861.34
2023-05-12T12:26:46.973Z,95866.88
2023-05-12T12:28:01.407Z,95861.16
2023-05-12T12:31:26.534Z,95860.41
2023-05-12T12:32:46.848Z,95864.81
2023-05-12T12:33:52.452Z,95874.28
2023-05-12T12:35:07.000Z,95873.59
2023-05-12T12:36:29.132Z,95884.72
2023-05-12T12:37:39.726Z,95869.97
2023-05-12T12:38:54.428Z,95870.78
2023-05-12T12:40:00.569Z,95870.44
2023-05-12T12:41:10.507Z,95871.28
2023-05-12T12:42:16.749Z,95872.13
2023-05-12T12:43:22.636Z,95873.91
2023-05-12T12:44:26.052Z,95871.66
2023-05-12T12:45:33.362Z,95871.84
2023-05-12T12:46:39.394Z,95878.88
2023-05-12T12:47:44.876Z,95876.72
2023-05-12T12:48:49.586Z,95870.34
2023-05-12T12:49:56.137Z,95869.09
2023-05-12T12:51:02.948Z,95873.84
2023-05-12T12:52:09.356Z,95875.22
2023-05-12T12:53:17.527Z,95869.19
2023-05-12T12:54:27.946Z,95860.59
2023-05-12T12:55:34.601Z,95856.44